Airfield :
LOGIN :

Register | Disclaimer

   EN    FR    IT 

 










Legend :    VFR   Marginal VFR   IFR   Intensive IFR   Very Intensive IFR
Visi :
Ceiling :
>= 8 km
>= 3000ft
5 to 8 km
1000 to 3000 ft
1500m to 5 km
500 to 1000 ft
800 to 1500m
200 to 500 ft
< 800m
< 200 ft
Symbols :   Thunderstorms  Fog  Heavy snow  Heavy precipitations  Wind > 20 kt
SIGMETs :     Misc.  Thunderstorms  Icing  Turbulence  Mountain Waves  Volcanic Ashes







- Airport Elevation : 885 ft
- IATA code : BAS
- Download approach charts


LFSB - Bale-Mulhouse

CURRENT METAR :
  • 130600Z 30003KT 270V340 4000 BR BKN003 M01/M01 Q1014 NOSIG

EXPIRED METARs :
  • 130530Z 31004KT 4000 BR BKN003 M01/M01 Q1014 NOSIG
  • 130500Z 34005KT 4500 BR BKN003 M01/M01 Q1015 NOSIG
  • 130430Z 33004KT 310V010 5000 BR BKN003 BKN043 M01/M01 Q1015 TEMPO 2000 BR OVC003
  • 130400Z 33004KT 5000 BR SCT003 BKN004 BKN040 M01/M01 Q1015 TEMPO 2000 BR OVC003
  • 130330Z 34005KT 5000 BR SCT003 BKN004 BKN040 M01/M01 Q1016 TEMPO 2000 BR OVC003

TAF TAF LFSB
Valid from the 13 at 06:00 until the 14 at 06:00 UTC


130500Z 1306/1406 33005KT 6000 BKN006
TEMPO 1306/1310 2000 BR OVC003
BECMG 1310/1313 FEW010 BKN020
BECMG 1320/1322 4000 BR BKN006
TEMPO 1322/1406 2000 BR OVC002
Met : +33 3 89 90 31 11
No reported NOTAMs for that airfield.



MET'MAP, your aeronautical weather chart ! - Copyright ORBIFLY December 2007 - Disclaimer

ORBIFLY MET'MAP TEAM :

Programming & Development : Alexandra Zaïnal
Concept & Development : Baudouin d'Aumeries
Co-Development & Prog : Marc-Olivier Méhu
Technical & hardware support : Manuel Goepfert

Contact : metmap@orbifly.com




SOURCES & CREDITS :

   NOAA